createdAt,value
2017-10-19T00:00:45.564Z,12.13
2017-10-19T00:03:22.402Z,12.03
2017-10-19T00:05:54.548Z,11.97
2017-10-19T00:11:03.021Z,12.93
2017-10-19T00:26:23.120Z,11.80
2017-10-19T00:28:56.605Z,11.20
2017-10-19T00:31:26.021Z,11.30
2017-10-19T00:33:52.672Z,12.00
2017-10-19T00:36:20.440Z,13.00
2017-10-19T00:38:48.854Z,11.73
2017-10-19T00:41:18.181Z,11.50
2017-10-19T00:53:28.334Z,11.57
2017-10-19T00:56:01.417Z,12.13
2017-10-19T00:58:34.019Z,11.97
2017-10-19T01:01:04.306Z,12.00
2017-10-19T01:03:39.605Z,11.43
2017-10-19T01:06:09.177Z,11.40
2017-10-19T01:08:43.943Z,11.20
2017-10-19T01:11:11.204Z,11.60
2017-10-19T01:13:38.154Z,11.70
2017-10-19T01:16:06.150Z,10.90
2017-10-19T01:18:36.543Z,11.90
2017-10-19T01:21:05.230Z,12.33
2017-10-19T01:23:32.561Z,11.73
2017-10-19T01:38:51.665Z,11.80
2017-10-19T01:41:21.543Z,11.10
2017-10-19T01:53:31.185Z,9.93
2017-10-19T01:55:58.298Z,11.10
2017-10-19T01:58:30.813Z,10.70
2017-10-19T02:00:58.470Z,10.60
2017-10-19T02:13:06.354Z,10.93
2017-10-19T02:15:39.900Z,10.77
2017-10-19T02:30:59.858Z,10.90
2017-10-19T02:43:10.087Z,11.17
2017-10-19T02:45:38.629Z,12.30
2017-10-19T02:57:46.283Z,10.80
2017-10-19T03:00:14.607Z,10.50
2017-10-19T03:02:43.731Z,11.20
2017-10-19T03:05:12.805Z,11.90
2017-10-19T03:07:43.744Z,13.00
2017-10-19T03:10:16.550Z,12.00
2017-10-19T03:12:46.182Z,11.00
2017-10-19T03:15:15.959Z,11.37
2017-10-19T03:17:45.276Z,11.73
2017-10-19T03:29:54.733Z,10.97
2017-10-19T03:42:01.652Z,11.80
2017-10-19T03:44:29.643Z,10.43
2017-10-19T03:46:58.039Z,10.90
2017-10-19T03:49:26.404Z,11.10
2017-10-19T03:51:54.794Z,10.60
2017-10-19T03:54:21.298Z,12.27
2017-10-19T03:56:48.971Z,11.83
2017-10-19T03:59:17.585Z,10.90
2017-10-19T04:01:47.000Z,11.83
2017-10-19T04:04:13.465Z,11.97
2017-10-19T04:06:44.809Z,11.50
2017-10-19T04:18:52.887Z,10.60
2017-10-19T04:21:20.086Z,11.23
2017-10-19T04:23:46.542Z,11.10
2017-10-19T04:26:13.964Z,11.00
2017-10-19T04:28:43.488Z,11.03
2017-10-19T04:40:51.060Z,11.00
2017-10-19T04:43:19.752Z,10.67
2017-10-19T04:45:47.598Z,12.33
2017-10-19T04:48:17.502Z,11.20
2017-10-19T04:50:44.247Z,11.77
2017-10-19T04:53:13.925Z,12.77
2017-10-19T04:55:42.547Z,13.07
2017-10-19T04:58:10.646Z,12.17
2017-10-19T05:10:17.674Z,11.13
2017-10-19T05:12:46.674Z,10.80
2017-10-19T05:24:55.272Z,9.53
2017-10-19T05:27:23.553Z,11.30
2017-10-19T05:29:52.012Z,10.73
2017-10-19T05:32:21.130Z,12.50
2017-10-19T05:34:50.927Z,11.73
2017-10-19T05:37:19.610Z,10.30
2017-10-19T05:39:47.857Z,11.30
2017-10-19T05:51:57.267Z,11.97
2017-10-19T05:54:28.226Z,11.43
2017-10-19T05:56:55.204Z,12.10
2017-10-19T05:59:22.781Z,12.00
2017-10-19T06:01:49.908Z,12.00
2017-10-19T06:04:19.440Z,11.77
2017-10-19T06:06:48.238Z,11.20
2017-10-19T06:09:15.787Z,11.90
2017-10-19T06:11:44.073Z,11.60
2017-10-19T06:14:14.350Z,12.57
2017-10-19T06:16:45.731Z,11.93
2017-10-19T06:19:13.489Z,11.33
2017-10-19T06:34:34.505Z,12.30
2017-10-19T06:46:43.609Z,12.17
2017-10-19T06:49:12.364Z,12.60
2017-10-19T07:01:19.207Z,13.10
2017-10-19T07:03:46.969Z,14.90
2017-10-19T07:06:15.613Z,12.90
2017-10-19T07:08:43.838Z,13.40
2017-10-19T07:11:11.766Z,12.73
2017-10-19T07:13:39.618Z,12.93
2017-10-19T07:25:46.770Z,13.23
2017-10-19T07:28:18.534Z,13.50
2017-10-19T07:30:46.648Z,12.80
2017-10-19T07:33:16.418Z,14.17
2017-10-19T07:35:43.254Z,14.70
2017-10-19T07:38:13.611Z,17.07
2017-10-19T07:40:42.207Z,14.70
2017-10-19T07:52:50.386Z,14.00
2017-10-19T07:55:22.162Z,14.17
2017-10-19T07:57:51.157Z,13.40
2017-10-19T08:00:22.260Z,15.27
2017-10-19T08:02:52.972Z,13.60
2017-10-19T08:05:23.634Z,13.27
2017-10-19T08:17:33.023Z,15.23
2017-10-19T08:20:03.988Z,14.53
2017-10-19T08:22:36.811Z,15.70
2017-10-19T08:25:08.721Z,16.70
2017-10-19T08:27:39.931Z,14.33
2017-10-19T08:30:09.378Z,15.30
2017-10-19T08:32:40.977Z,16.80
2017-10-19T08:35:11.481Z,16.53
2017-10-19T08:37:48.504Z,16.20
2017-10-19T08:50:00.135Z,16.33
2017-10-19T08:55:03.056Z,17.20
2017-10-19T09:12:55.203Z,19.60
2017-10-19T09:15:25.434Z,18.60
2017-10-19T09:18:01.179Z,16.93
2017-10-19T09:20:33.441Z,17.57
2017-10-19T09:23:05.594Z,18.37
2017-10-19T09:35:16.479Z,16.70
2017-10-19T09:37:44.892Z,17.60
2017-10-19T09:40:16.601Z,17.47
2017-10-19T09:42:46.768Z,19.30
2017-10-19T09:45:20.033Z,19.40
2017-10-19T10:00:36.592Z,18.67
2017-10-19T10:03:08.979Z,18.80
2017-10-19T10:05:43.542Z,17.37
2017-10-19T10:21:02.322Z,18.80
2017-10-19T10:36:25.983Z,19.23
2017-10-19T10:38:53.631Z,18.90
2017-10-19T10:41:23.850Z,20.00
2017-10-19T10:53:33.154Z,18.77
2017-10-19T11:05:43.973Z,20.03
2017-10-19T11:08:14.323Z,20.37
2017-10-19T11:10:44.743Z,19.97
2017-10-19T11:13:14.870Z,19.67
2017-10-19T11:15:44.692Z,19.50
2017-10-19T11:27:58.604Z,19.57
2017-10-19T11:30:27.920Z,20.30
2017-10-19T11:33:01.164Z,20.33
2017-10-19T11:35:30.750Z,20.17
2017-10-19T11:47:42.392Z,23.37
2017-10-19T11:59:52.054Z,34.90
2017-10-19T12:05:00.275Z,27.87
2017-10-19T12:07:30.631Z,23.00
2017-10-19T12:09:57.925Z,22.40
2017-10-19T12:12:26.575Z,25.23
2017-10-19T12:14:54.451Z,24.00
2017-10-19T12:17:23.989Z,23.60
2017-10-19T12:22:28.131Z,23.47
2017-10-19T12:24:57.669Z,23.80
2017-10-19T12:27:27.652Z,27.37
2017-10-19T12:29:57.446Z,23.83
2017-10-19T12:32:27.624Z,21.03
2017-10-19T12:35:10.158Z,24.70
2017-10-19T12:37:39.337Z,27.63
2017-10-19T12:40:06.784Z,28.03
2017-10-19T12:42:34.579Z,21.10
2017-10-19T12:45:10.717Z,20.40
2017-10-19T12:47:39.228Z,21.37
2017-10-19T12:52:45.142Z,20.17
2017-10-19T13:00:35.449Z,18.20
2017-10-19T13:03:12.811Z,19.87
2017-10-19T13:05:42.916Z,23.10
2017-10-19T13:21:04.421Z,21.33
2017-10-19T13:39:03.828Z,18.50
2017-10-19T13:41:33.980Z,19.90
2017-10-19T13:44:10.856Z,17.87
2017-10-19T15:52:27.523Z,15.17
2017-10-19T15:54:57.273Z,16.97
2017-10-19T15:57:28.327Z,14.33
2017-10-19T15:59:58.393Z,14.47
2017-10-19T16:02:30.629Z,15.83
2017-10-19T16:04:58.826Z,14.27
2017-10-19T16:17:06.391Z,15.50
2017-10-19T16:25:01.632Z,14.33
2017-10-19T16:27:30.010Z,15.30
2017-10-19T16:39:38.140Z,14.00
2017-10-19T16:42:07.774Z,15.00
2017-10-19T16:44:35.722Z,14.60
2017-10-19T16:59:22.425Z,13.20
2017-10-19T17:11:38.645Z,12.70
2017-10-19T17:14:07.640Z,14.70
2017-10-19T17:29:30.199Z,12.73
2017-10-19T17:32:00.377Z,13.13
2017-10-19T17:34:37.227Z,15.80
2017-10-19T17:37:13.769Z,13.93
2017-10-19T17:39:53.792Z,11.53
2017-10-19T17:42:23.293Z,12.53
2017-10-19T17:54:38.089Z,12.70
2017-10-19T17:57:07.834Z,12.10
2017-10-19T18:02:26.480Z,12.90
2017-10-19T18:05:00.021Z,14.30
2017-10-19T18:17:09.890Z,14.30
2017-10-19T18:19:36.888Z,13.33
2017-10-19T18:22:04.677Z,12.40
2017-10-19T18:24:34.839Z,12.17
2017-10-19T18:27:04.522Z,11.20
2017-10-19T18:29:32.853Z,12.87
2017-10-19T18:32:02.448Z,10.50
2017-10-19T18:44:13.073Z,11.33
2017-10-19T18:46:44.779Z,10.83
2017-10-19T18:49:11.990Z,11.60
2017-10-19T18:51:43.415Z,10.50
2017-10-19T18:54:15.957Z,12.23
2017-10-19T18:56:44.527Z,10.70
2017-10-19T18:59:21.163Z,11.10
2017-10-19T19:11:35.012Z,12.20
2017-10-19T19:14:05.214Z,11.50
2017-10-19T19:16:42.213Z,10.80
2017-10-19T19:28:57.512Z,12.20
2017-10-19T19:31:28.522Z,12.53
2017-10-19T19:34:01.609Z,11.67
2017-10-19T19:36:35.183Z,12.13
2017-10-19T19:48:54.251Z,9.77
2017-10-19T20:01:05.830Z,9.20
2017-10-19T20:03:35.040Z,10.87
2017-10-19T20:06:04.932Z,11.87
2017-10-19T20:11:15.063Z,10.77
2017-10-19T20:13:43.290Z,11.53
2017-10-19T20:16:14.872Z,10.43
2017-10-19T20:18:45.048Z,10.77
2017-10-19T20:21:13.147Z,11.43
2017-10-19T20:23:45.490Z,11.20
2017-10-19T20:26:16.445Z,10.53
2017-10-19T20:38:26.825Z,10.53
2017-10-19T20:40:57.753Z,10.30
2017-10-19T20:43:30.742Z,12.97
2017-10-19T20:55:38.070Z,10.60
2017-10-19T21:07:46.305Z,9.90
2017-10-19T21:10:14.179Z,10.70
2017-10-19T21:12:43.768Z,9.90
2017-10-19T21:15:12.090Z,9.20
2017-10-19T21:22:54.003Z,10.00
2017-10-19T21:25:30.276Z,10.30
2017-10-19T21:28:04.897Z,9.40
2017-10-19T21:40:19.777Z,9.80
2017-10-19T21:42:48.138Z,9.90
2017-10-19T21:45:19.734Z,9.60
2017-10-19T21:47:48.459Z,9.57
2017-10-19T21:50:30.723Z,9.90
2017-10-19T21:53:03.963Z,8.80
2017-10-19T21:55:34.780Z,10.83
2017-10-19T21:58:09.077Z,9.60
2017-10-19T22:13:31.495Z,9.53
2017-10-19T22:16:03.223Z,9.47
2017-10-19T22:18:33.508Z,10.40
2017-10-19T22:23:50.269Z,11.20
2017-10-19T22:26:20.291Z,9.53
2017-10-19T22:28:49.545Z,10.33
2017-10-19T22:34:08.269Z,11.03
2017-10-19T22:36:40.727Z,10.30
2017-10-19T22:39:12.187Z,10.27
2017-10-19T22:41:41.251Z,10.77
2017-10-19T22:44:18.113Z,10.90
2017-10-19T22:47:00.087Z,9.93
2017-10-19T22:49:38.090Z,11.10
2017-10-19T23:01:46.204Z,10.20
2017-10-19T23:04:22.106Z,10.23
2017-10-19T23:06:52.914Z,10.13
2017-10-19T23:09:21.993Z,9.97
2017-10-19T23:21:32.207Z,9.77
2017-10-19T23:24:08.089Z,9.57
2017-10-19T23:26:40.971Z,10.13
2017-10-19T23:29:13.675Z,9.83
2017-10-19T23:34:20.339Z,9.63
2017-10-19T23:36:48.190Z,8.73
2017-10-19T23:48:54.759Z,9.60
2017-10-19T23:51:21.629Z,10.10
2017-10-19T23:53:48.147Z,10.30
2017-10-19T23:56:14.532Z,9.80
2017-10-19T23:58:42.072Z,10.97
